Disclaimer

Please do not use the information listed here in-flight or in-navigation, as they are not provided to us by the airports but are provided by volunteers, so they might be outdated.

Search


Regions


Airport information page

Radio informations:
CHITOSE TWR - 118.8 MHz
CHITOSE GND - 121.6 MHz
CHITOSE DEP - 124.7 MHz
CHITOSE CLNC DEL - 121.9 MHz
CHITOSE APP - 120.1 MHz

Airport informations:
Latitude: 42° 46' 30.72" N
Longitude: 141° 41' 32.22" E
Elevation: 82 feet - 25 meters
Operating hours: N/A
Operating agency: Civil government, landing fees and diplomatic clearance may be required
Timezone: UTC+9
Fuel: Jet A, without icing inhibitor.

Jet A1, without icing nhibitor.

Runway information:
01R/19L - 9840 x 200 feet< - >2999 x 61 meters
01L/19R - 9840 x 200 feet< - >2999 x 61 meters

Recent METARs:
RJCC 151100Z 32004KT 9999 FEW020 BKN040 06/01 Q1022 RMK 1CU020 6CU040 A3020
RJCC 151130Z 30004KT 9999 FEW020 SCT040 05/01 Q1022 RMK 1CU020 3CU040 A3020
RJCC 151200Z VRB02KT 9999 FEW020 03/01 Q1022 RMK 1CU020 A3020

Airport on the map: